createdAt,value
2023-01-19T00:00:33.994Z,89.49
2023-01-19T00:03:00.660Z,90.06
2023-01-19T00:05:27.339Z,89.91
2023-01-19T00:07:53.893Z,89.91
2023-01-19T00:10:20.381Z,89.95
2023-01-19T00:12:46.973Z,89.96
2023-01-19T00:15:13.486Z,90.34
2023-01-19T00:17:40.127Z,89.94
2023-01-19T00:20:08.724Z,89.82
2023-01-19T00:22:35.342Z,90.90
2023-01-19T00:25:01.889Z,90.46
2023-01-19T00:27:28.407Z,89.99
2023-01-19T00:29:55.221Z,90.71
2023-01-19T00:32:21.872Z,90.55
2023-01-19T00:34:48.348Z,90.95
2023-01-19T00:37:15.971Z,90.51
2023-01-19T00:39:42.582Z,90.78
2023-01-19T00:42:12.293Z,90.66
2023-01-19T00:44:38.978Z,90.92
2023-01-19T00:47:05.531Z,90.12
2023-01-19T00:49:32.080Z,90.69
2023-01-19T00:51:58.574Z,90.48
2023-01-19T00:54:26.894Z,90.48
2023-01-19T00:56:54.067Z,90.16
2023-01-19T00:59:20.618Z,90.59
2023-01-19T01:01:47.176Z,91.33
2023-01-19T01:04:14.571Z,91.03
2023-01-19T01:06:41.048Z,91.22
2023-01-19T01:09:07.626Z,91.15
2023-01-19T01:11:34.161Z,91.01
2023-01-19T01:14:00.831Z,90.72
2023-01-19T01:16:27.634Z,90.77
2023-01-19T01:18:54.188Z,90.91
2023-01-19T01:21:20.650Z,91.16
2023-01-19T01:23:47.245Z,91.28
2023-01-19T01:26:13.874Z,90.59
2023-01-19T01:28:40.427Z,91.28
2023-01-19T01:31:07.047Z,90.80
2023-01-19T01:33:40.703Z,90.84
2023-01-19T01:36:09.368Z,91.08
2023-01-19T01:38:35.953Z,90.66
2023-01-19T01:41:02.724Z,91.28
2023-01-19T01:43:52.479Z,91.49
2023-01-19T01:46:19.109Z,91.36
2023-01-19T01:49:14.703Z,91.79
2023-01-19T01:51:51.054Z,90.94
2023-01-19T01:54:27.048Z,91.45
2023-01-19T01:56:57.576Z,91.60
2023-01-19T01:59:28.349Z,91.79
2023-01-19T02:01:58.175Z,91.80
2023-01-19T02:04:26.516Z,91.32
2023-01-19T02:06:53.125Z,91.27
2023-01-19T02:09:20.241Z,91.12
2023-01-19T02:11:47.627Z,91.16
2023-01-19T02:14:14.190Z,91.27
2023-01-19T02:16:40.762Z,91.96
2023-01-19T02:19:11.122Z,91.48
2023-01-19T02:21:46.778Z,92.00
2023-01-19T02:24:13.890Z,92.08
2023-01-19T02:26:45.473Z,91.38
2023-01-19T02:29:15.773Z,91.64
2023-01-19T02:31:42.612Z,92.09
2023-01-19T02:34:12.066Z,91.68
2023-01-19T02:36:58.735Z,92.28
2023-01-19T02:39:33.481Z,92.31
2023-01-19T02:42:28.383Z,91.87
2023-01-19T02:44:56.961Z,91.97
2023-01-19T02:47:24.271Z,92.13
2023-01-19T02:49:57.996Z,91.99
2023-01-19T02:52:25.733Z,92.03
2023-01-19T02:55:10.792Z,91.62
2023-01-19T02:57:43.456Z,92.49
2023-01-19T03:00:31.779Z,92.37
2023-01-19T03:03:01.826Z,92.18
2023-01-19T03:05:37.824Z,92.46
2023-01-19T03:08:30.181Z,92.31
2023-01-19T03:11:10.440Z,91.94
2023-01-19T03:13:43.191Z,91.92
2023-01-19T03:16:16.351Z,92.12
2023-01-19T03:18:47.108Z,92.55
2023-01-19T03:21:16.127Z,92.46
2023-01-19T03:23:45.605Z,92.05
2023-01-19T03:26:16.683Z,92.42
2023-01-19T03:28:46.481Z,92.30
2023-01-19T03:31:18.099Z,92.34
2023-01-19T03:33:48.429Z,92.87
2023-01-19T03:36:21.286Z,91.90
2023-01-19T03:38:50.696Z,92.66
2023-01-19T03:41:21.997Z,92.51
2023-01-19T03:43:50.636Z,91.90
2023-01-19T03:46:19.022Z,92.46
2023-01-19T03:48:46.590Z,92.16
2023-01-19T03:51:13.645Z,92.59
2023-01-19T03:53:40.982Z,92.62
2023-01-19T03:56:14.060Z,92.46
2023-01-19T03:58:40.623Z,92.16
2023-01-19T04:01:07.204Z,91.49
2023-01-19T04:03:33.850Z,92.39
2023-01-19T04:06:00.425Z,92.08
2023-01-19T04:08:26.970Z,92.57
2023-01-19T04:10:53.500Z,92.56
2023-01-19T04:13:20.056Z,92.67
2023-01-19T04:15:46.832Z,91.92
2023-01-19T04:18:13.414Z,92.16
2023-01-19T04:20:40.031Z,92.59
2023-01-19T04:23:06.638Z,92.44
2023-01-19T04:25:33.268Z,93.02
2023-01-19T04:27:59.867Z,92.19
2023-01-19T04:30:26.840Z,92.85
2023-01-19T04:32:53.793Z,92.22
2023-01-19T04:35:20.328Z,93.31
2023-01-19T04:37:46.992Z,92.78
2023-01-19T04:40:13.558Z,93.25
2023-01-19T04:42:44.311Z,93.40
2023-01-19T04:45:12.430Z,93.31
2023-01-19T04:47:39.389Z,93.19
2023-01-19T04:50:06.928Z,93.41
2023-01-19T04:52:34.338Z,93.80
2023-01-19T04:55:02.176Z,93.57
2023-01-19T04:57:29.677Z,93.23
2023-01-19T04:59:57.590Z,92.75
2023-01-19T05:02:25.344Z,93.07
2023-01-19T05:04:51.880Z,93.38
2023-01-19T05:07:18.362Z,93.43
2023-01-19T05:09:45.065Z,92.90
2023-01-19T05:12:11.597Z,92.47
2023-01-19T05:14:38.122Z,92.70
2023-01-19T05:17:04.704Z,93.10
2023-01-19T05:19:31.609Z,92.69
2023-01-19T05:21:58.783Z,93.38
2023-01-19T05:24:25.580Z,92.78
2023-01-19T05:26:52.250Z,92.93
2023-01-19T05:29:18.924Z,93.66
2023-01-19T05:31:45.839Z,92.99
2023-01-19T05:34:12.958Z,92.69
2023-01-19T05:36:39.463Z,92.84
2023-01-19T05:39:06.181Z,93.25
2023-01-19T05:41:32.992Z,92.88
2023-01-19T05:43:59.488Z,93.76
2023-01-19T05:46:26.149Z,93.18
2023-01-19T05:48:52.783Z,93.14
2023-01-19T05:51:19.587Z,93.06
2023-01-19T05:53:46.117Z,92.53
2023-01-19T05:56:12.579Z,93.08
2023-01-19T05:58:39.309Z,92.89
2023-01-19T06:01:07.122Z,93.30
2023-01-19T06:03:34.599Z,93.61
2023-01-19T06:06:01.616Z,93.32
2023-01-19T06:08:28.650Z,93.06
2023-01-19T06:10:55.236Z,93.54
2023-01-19T06:13:21.879Z,92.48
2023-01-19T06:15:48.561Z,93.25
2023-01-19T06:18:15.183Z,92.52
2023-01-19T06:20:41.795Z,92.75
2023-01-19T06:23:08.403Z,92.77
2023-01-19T06:25:34.893Z,92.70
2023-01-19T06:28:01.602Z,93.07
2023-01-19T06:30:28.208Z,92.86
2023-01-19T06:32:54.756Z,93.29
2023-01-19T06:35:21.219Z,93.22
2023-01-19T06:37:48.900Z,93.24
2023-01-19T06:40:15.513Z,93.20
2023-01-19T06:42:42.222Z,93.12
2023-01-19T06:45:09.576Z,92.47
2023-01-19T06:47:36.319Z,92.99
2023-01-19T06:50:02.870Z,92.76
2023-01-19T06:52:29.397Z,92.67
2023-01-19T06:54:56.750Z,92.61
2023-01-19T06:57:23.388Z,93.15
2023-01-19T06:59:50.132Z,92.88
2023-01-19T07:02:27.212Z,92.53
2023-01-19T07:04:55.914Z,92.71
2023-01-19T07:07:22.434Z,92.55
2023-01-19T07:09:49.110Z,92.39
2023-01-19T07:12:20.265Z,92.47
2023-01-19T07:14:46.723Z,91.75
2023-01-19T07:17:13.430Z,92.68
2023-01-19T07:19:40.027Z,92.48
2023-01-19T07:22:06.773Z,91.80
2023-01-19T07:24:33.240Z,93.47
2023-01-19T07:26:59.741Z,93.02
2023-01-19T07:29:26.236Z,92.20
2023-01-19T07:31:54.588Z,93.17
2023-01-19T07:34:21.359Z,93.05
2023-01-19T07:36:48.792Z,93.22
2023-01-19T07:39:15.379Z,92.80
2023-01-19T07:41:42.077Z,93.01
2023-01-19T07:44:08.651Z,92.95
2023-01-19T07:46:35.391Z,92.98
2023-01-19T07:49:01.955Z,93.20
2023-01-19T07:51:28.670Z,93.00
2023-01-19T07:53:55.340Z,93.69
2023-01-19T07:56:21.860Z,93.68
2023-01-19T07:58:48.505Z,93.24
2023-01-19T08:01:15.145Z,93.71
2023-01-19T08:03:41.684Z,93.95
2023-01-19T08:06:19.424Z,93.27
2023-01-19T08:08:45.977Z,93.57
2023-01-19T08:11:12.621Z,93.43
2023-01-19T08:13:39.392Z,94.17
2023-01-19T08:16:06.451Z,93.87
2023-01-19T08:18:33.393Z,94.22
2023-01-19T08:21:00.195Z,94.47
2023-01-19T08:23:27.077Z,93.52
2023-01-19T08:25:54.251Z,93.96
2023-01-19T08:28:21.357Z,93.30
2023-01-19T08:30:48.967Z,93.70
2023-01-19T08:33:15.562Z,94.27
2023-01-19T08:35:46.787Z,93.16
2023-01-19T08:38:13.322Z,93.63
2023-01-19T08:40:41.883Z,93.39
2023-01-19T08:43:11.661Z,93.99
2023-01-19T08:45:40.747Z,93.86
2023-01-19T08:48:07.367Z,93.83
2023-01-19T08:50:34.856Z,94.23
2023-01-19T08:53:03.869Z,94.29
2023-01-19T08:55:30.625Z,93.68
2023-01-19T08:57:58.395Z,94.31
2023-01-19T09:00:25.581Z,94.39
2023-01-19T09:02:52.143Z,94.25
2023-01-19T09:05:19.022Z,94.33
2023-01-19T09:07:47.075Z,93.95
2023-01-19T09:10:14.928Z,94.50
2023-01-19T09:12:41.732Z,94.26
2023-01-19T09:15:09.033Z,94.80
2023-01-19T09:17:35.570Z,94.49
2023-01-19T09:20:02.470Z,96.45
2023-01-19T09:22:28.995Z,98.12
2023-01-19T09:24:55.678Z,100.00
2023-01-19T09:27:22.283Z,100.00
2023-01-19T09:29:48.747Z,100.00
2023-01-19T09:32:15.287Z,100.00
2023-01-19T09:34:42.041Z,100.00
2023-01-19T09:37:08.561Z,97.69
2023-01-19T09:39:37.614Z,97.14
2023-01-19T09:42:47.619Z,95.68
2023-01-19T09:45:19.534Z,97.07
2023-01-19T09:47:48.140Z,95.32
2023-01-19T09:50:38.591Z,94.66
2023-01-19T09:53:14.107Z,91.24
2023-01-19T09:55:42.093Z,89.13
2023-01-19T09:58:14.538Z,86.39
2023-01-19T10:00:45.134Z,85.79
2023-01-19T10:03:16.601Z,83.35
2023-01-19T10:05:56.948Z,80.13
2023-01-19T10:08:41.259Z,79.93
2023-01-19T10:11:51.599Z,76.93
2023-01-19T10:14:29.411Z,77.83
2023-01-19T10:17:33.306Z,74.70
2023-01-19T10:20:03.191Z,75.67
2023-01-19T10:22:29.782Z,74.62
2023-01-19T10:25:01.363Z,71.24
2023-01-19T10:27:31.824Z,68.64
2023-01-19T10:29:59.225Z,73.26
2023-01-19T10:32:29.460Z,72.30
2023-01-19T10:34:56.713Z,70.78
2023-01-19T10:37:36.927Z,69.61
2023-01-19T10:40:09.512Z,69.51
2023-01-19T10:42:38.377Z,69.24
2023-01-19T10:45:26.865Z,65.89
2023-01-19T10:47:58.089Z,67.45
2023-01-19T10:50:30.919Z,66.62
2023-01-19T10:53:00.245Z,66.44
2023-01-19T10:55:32.314Z,65.62
2023-01-19T10:58:00.037Z,65.43
2023-01-19T11:00:44.751Z,64.42
2023-01-19T11:03:31.688Z,64.55
2023-01-19T11:06:13.800Z,64.40
2023-01-19T11:08:40.561Z,66.29
2023-01-19T11:11:07.594Z,66.24
2023-01-19T11:13:35.449Z,66.20
2023-01-19T11:16:27.502Z,66.12
2023-01-19T11:18:56.854Z,66.69
2023-01-19T11:21:26.479Z,68.03
2023-01-19T11:23:56.982Z,67.74
2023-01-19T11:26:34.245Z,68.20
2023-01-19T11:29:05.048Z,69.24
2023-01-19T11:31:34.493Z,70.32
2023-01-19T11:34:21.634Z,68.89
2023-01-19T11:37:01.003Z,69.80
2023-01-19T11:39:30.946Z,69.36
2023-01-19T11:42:01.443Z,69.37
2023-01-19T11:44:30.239Z,69.56
2023-01-19T11:46:59.540Z,69.79
2023-01-19T11:49:43.899Z,70.12
2023-01-19T11:52:26.972Z,69.53
2023-01-19T11:55:02.697Z,69.84
2023-01-19T11:57:29.234Z,70.41
2023-01-19T11:59:55.863Z,70.21
2023-01-19T12:02:34.892Z,70.80
2023-01-19T12:05:06.296Z,70.97
2023-01-19T12:07:36.119Z,71.05
2023-01-19T12:10:15.810Z,71.31
2023-01-19T12:12:43.966Z,71.64
2023-01-19T12:15:29.719Z,70.96
2023-01-19T12:18:01.016Z,71.21
2023-01-19T12:20:34.135Z,71.14
2023-01-19T12:23:25.997Z,70.76
2023-01-19T12:26:20.576Z,72.02
2023-01-19T12:28:48.653Z,71.86
2023-01-19T12:31:17.461Z,70.94
2023-01-19T12:33:44.485Z,70.97
2023-01-19T12:36:16.992Z,71.92
2023-01-19T12:38:52.239Z,71.46
2023-01-19T12:41:20.885Z,71.35
2023-01-19T12:44:12.382Z,70.87
2023-01-19T12:46:49.315Z,71.46
2023-01-19T12:49:29.797Z,71.18
2023-01-19T12:52:17.307Z,71.94
2023-01-19T12:54:56.334Z,72.09
2023-01-19T12:57:28.394Z,73.08
2023-01-19T13:00:00.263Z,73.11
2023-01-19T13:02:26.751Z,71.85
2023-01-19T13:05:32.666Z,72.64
2023-01-19T13:08:02.817Z,72.82
2023-01-19T13:10:51.292Z,70.65
2023-01-19T13:13:30.238Z,71.29
2023-01-19T13:16:19.099Z,70.50
2023-01-19T13:18:50.293Z,69.66
2023-01-19T13:21:33.195Z,67.52
2023-01-19T13:24:02.457Z,66.38
2023-01-19T13:26:32.786Z,67.80
2023-01-19T13:29:13.739Z,67.99
2023-01-19T13:31:42.907Z,67.84
2023-01-19T13:34:14.876Z,67.78
2023-01-19T13:36:51.895Z,67.45
2023-01-19T13:39:41.901Z,64.44
2023-01-19T13:42:17.483Z,67.03
2023-01-19T13:44:49.513Z,66.46
2023-01-19T13:47:21.468Z,65.80
2023-01-19T13:49:55.731Z,65.73
2023-01-19T13:52:23.603Z,65.25
2023-01-19T13:55:13.456Z,65.08
2023-01-19T13:57:44.210Z,64.75
2023-01-19T14:00:10.897Z,65.64
2023-01-19T14:02:55.877Z,65.48
2023-01-19T14:05:31.590Z,65.23
2023-01-19T14:08:10.386Z,65.46
2023-01-19T14:11:00.953Z,65.08
2023-01-19T14:13:35.291Z,64.90
2023-01-19T14:16:15.446Z,65.33
2023-01-19T14:18:42.268Z,65.25
2023-01-19T14:21:14.471Z,65.85
2023-01-19T14:23:52.973Z,65.72
2023-01-19T14:26:37.874Z,65.15
2023-01-19T14:29:49.628Z,66.13
2023-01-19T14:32:24.329Z,66.25
2023-01-19T14:34:57.113Z,66.26
2023-01-19T14:37:45.976Z,65.94
2023-01-19T14:40:12.595Z,65.92
2023-01-19T14:42:42.197Z,66.07
2023-01-19T14:45:38.966Z,66.06
2023-01-19T14:48:18.489Z,65.58
2023-01-19T14:50:57.625Z,65.64
2023-01-19T14:53:30.357Z,66.76
2023-01-19T14:56:00.751Z,66.64
2023-01-19T14:58:31.449Z,66.16
2023-01-19T15:00:58.034Z,66.81
2023-01-19T15:03:34.938Z,66.78
2023-01-19T15:06:21.071Z,66.82
2023-01-19T15:08:48.204Z,67.04
2023-01-19T15:11:31.163Z,66.59
2023-01-19T15:13:58.375Z,67.04
2023-01-19T15:16:26.261Z,67.05
2023-01-19T15:18:52.892Z,67.08
2023-01-19T15:21:21.058Z,66.97
2023-01-19T15:23:47.772Z,67.05
2023-01-19T15:26:17.741Z,67.45
2023-01-19T15:28:45.410Z,67.73
2023-01-19T15:31:16.125Z,67.63
2023-01-19T15:33:42.695Z,68.64
2023-01-19T15:36:13.417Z,68.53
2023-01-19T15:38:40.219Z,68.73
2023-01-19T15:41:27.076Z,68.66
2023-01-19T15:43:53.852Z,69.38
2023-01-19T15:46:21.416Z,69.55
2023-01-19T15:48:51.211Z,69.67
2023-01-19T15:51:23.408Z,69.48
2023-01-19T15:53:50.320Z,70.33
2023-01-19T15:56:22.574Z,69.43
2023-01-19T15:58:49.425Z,70.76
2023-01-19T16:01:20.864Z,69.80
2023-01-19T16:03:48.091Z,70.01
2023-01-19T16:06:17.554Z,70.65
2023-01-19T16:08:44.588Z,70.65
2023-01-19T16:11:15.852Z,71.01
2023-01-19T16:13:46.036Z,70.94
2023-01-19T16:16:18.187Z,71.29
2023-01-19T16:18:45.600Z,71.39
2023-01-19T16:21:14.816Z,71.99
2023-01-19T16:23:42.409Z,71.60
2023-01-19T16:26:32.832Z,73.06
2023-01-19T16:29:04.835Z,72.35
2023-01-19T16:31:31.418Z,72.45
2023-01-19T16:33:57.991Z,72.51
2023-01-19T16:36:30.174Z,73.02
2023-01-19T16:39:09.209Z,73.05
2023-01-19T16:41:36.649Z,73.72
2023-01-19T16:44:04.142Z,73.48
2023-01-19T16:46:34.189Z,74.03
2023-01-19T16:49:05.849Z,73.85
2023-01-19T16:51:34.154Z,75.27
2023-01-19T16:54:00.736Z,74.79
2023-01-19T16:56:27.579Z,74.88
2023-01-19T16:58:59.524Z,74.85
2023-01-19T17:01:29.513Z,75.00
2023-01-19T17:03:56.592Z,75.20
2023-01-19T17:06:24.322Z,75.46
2023-01-19T17:08:52.758Z,75.63
2023-01-19T17:11:22.320Z,75.75
2023-01-19T17:13:59.577Z,76.61
2023-01-19T17:16:28.225Z,76.15
2023-01-19T17:18:57.110Z,76.16
2023-01-19T17:21:24.122Z,77.20
2023-01-19T17:23:52.579Z,77.22
2023-01-19T17:26:20.030Z,77.43
2023-01-19T17:28:46.844Z,77.30
2023-01-19T17:31:22.021Z,77.97
2023-01-19T17:33:50.227Z,77.48
2023-01-19T17:36:21.204Z,77.52
2023-01-19T17:38:52.252Z,78.35
2023-01-19T17:41:24.989Z,78.05
2023-01-19T17:43:52.028Z,78.12
2023-01-19T17:46:20.723Z,78.57
2023-01-19T17:48:54.820Z,78.72
2023-01-19T17:51:22.370Z,78.20
2023-01-19T17:53:49.878Z,78.49
2023-01-19T17:56:18.545Z,78.75
2023-01-19T17:58:45.427Z,79.00
2023-01-19T18:01:15.054Z,78.95
2023-01-19T18:03:41.909Z,78.92
2023-01-19T18:06:08.857Z,79.52
2023-01-19T18:08:38.301Z,79.22
2023-01-19T18:11:05.113Z,79.46
2023-01-19T18:13:31.663Z,79.38
2023-01-19T18:16:03.272Z,78.98
2023-01-19T18:18:30.108Z,79.85
2023-01-19T18:21:00.596Z,79.30
2023-01-19T18:23:28.044Z,78.85
2023-01-19T18:26:05.903Z,78.97
2023-01-19T18:28:33.028Z,79.67
2023-01-19T18:30:59.899Z,79.83
2023-01-19T18:33:27.202Z,79.75
2023-01-19T18:35:54.695Z,79.65
2023-01-19T18:38:21.336Z,79.95
2023-01-19T18:40:47.792Z,79.94
2023-01-19T18:43:14.314Z,79.86
2023-01-19T18:45:40.848Z,80.08
2023-01-19T18:48:07.841Z,80.16
2023-01-19T18:50:34.453Z,79.71
2023-01-19T18:53:00.967Z,80.15
2023-01-19T18:55:27.732Z,80.35
2023-01-19T18:57:54.314Z,80.63
2023-01-19T19:00:21.135Z,79.92
2023-01-19T19:02:47.630Z,80.27
2023-01-19T19:05:14.122Z,80.85
2023-01-19T19:07:40.632Z,80.69
2023-01-19T19:10:07.730Z,80.61
2023-01-19T19:12:34.248Z,81.16
2023-01-19T19:15:00.823Z,81.18
2023-01-19T19:17:27.345Z,81.41
2023-01-19T19:19:53.861Z,81.12
2023-01-19T19:22:20.485Z,81.19
2023-01-19T19:24:47.172Z,81.39
2023-01-19T19:27:13.814Z,81.40
2023-01-19T19:29:41.053Z,81.74
2023-01-19T19:32:07.580Z,82.16
2023-01-19T19:34:34.028Z,81.89
2023-01-19T19:37:01.366Z,82.41
2023-01-19T19:39:28.790Z,82.33
2023-01-19T19:41:55.330Z,82.35
2023-01-19T19:44:21.786Z,82.47
2023-01-19T19:46:48.440Z,82.35
2023-01-19T19:49:15.058Z,82.34
2023-01-19T19:51:41.613Z,82.59
2023-01-19T19:54:09.091Z,82.76
2023-01-19T19:56:35.616Z,82.64
2023-01-19T19:59:02.223Z,82.79
2023-01-19T20:01:32.971Z,83.12
2023-01-19T20:04:08.361Z,83.39
2023-01-19T20:06:35.835Z,82.84
2023-01-19T20:09:02.400Z,83.47
2023-01-19T20:11:29.072Z,83.26
2023-01-19T20:13:55.620Z,82.99
2023-01-19T20:16:23.391Z,83.73
2023-01-19T20:18:51.899Z,83.77
2023-01-19T20:21:21.391Z,83.99
2023-01-19T20:23:48.797Z,83.60
2023-01-19T20:26:17.909Z,84.25
2023-01-19T20:28:45.192Z,84.30
2023-01-19T20:31:21.431Z,84.14
2023-01-19T20:33:49.660Z,83.54
2023-01-19T20:36:17.631Z,84.17
2023-01-19T20:38:44.635Z,84.05
2023-01-19T20:41:13.203Z,84.56
2023-01-19T20:43:40.210Z,84.02
2023-01-19T20:46:07.139Z,83.76
2023-01-19T20:48:33.697Z,84.09
2023-01-19T20:51:01.896Z,84.12
2023-01-19T20:53:29.449Z,84.31
2023-01-19T20:55:56.239Z,83.64
2023-01-19T20:58:23.577Z,83.83
2023-01-19T21:00:50.471Z,83.77
2023-01-19T21:03:17.857Z,84.08
2023-01-19T21:05:46.970Z,83.90
2023-01-19T21:08:13.440Z,83.47
2023-01-19T21:10:39.984Z,84.29
2023-01-19T21:13:06.561Z,83.97
2023-01-19T21:15:33.019Z,84.17
2023-01-19T21:17:59.510Z,84.28
2023-01-19T21:20:26.559Z,84.02
2023-01-19T21:22:53.136Z,84.24
2023-01-19T21:25:19.638Z,84.47
2023-01-19T21:27:46.077Z,84.55
2023-01-19T21:30:12.670Z,84.27
2023-01-19T21:32:39.317Z,84.54
2023-01-19T21:35:06.274Z,84.33
2023-01-19T21:37:32.762Z,84.45
2023-01-19T21:39:59.211Z,84.45
2023-01-19T21:42:25.715Z,84.53
2023-01-19T21:44:52.160Z,84.22
2023-01-19T21:47:18.678Z,84.34
2023-01-19T21:49:45.097Z,84.53
2023-01-19T21:52:11.590Z,84.53
2023-01-19T21:54:38.066Z,84.11
2023-01-19T21:57:05.007Z,83.96
2023-01-19T21:59:31.479Z,84.09
2023-01-19T22:01:58.150Z,83.39
2023-01-19T22:04:24.713Z,84.50
2023-01-19T22:06:51.154Z,83.56
2023-01-19T22:09:17.622Z,83.52
2023-01-19T22:11:44.042Z,84.14
2023-01-19T22:14:10.521Z,83.95
2023-01-19T22:16:37.023Z,83.42
2023-01-19T22:19:03.520Z,83.54
2023-01-19T22:21:33.265Z,83.62
2023-01-19T22:24:01.278Z,83.78
2023-01-19T22:26:29.489Z,83.77
2023-01-19T22:28:57.524Z,83.40
2023-01-19T22:31:25.002Z,83.83
2023-01-19T22:33:52.401Z,83.47
2023-01-19T22:36:21.957Z,83.83
2023-01-19T22:38:53.855Z,83.52
2023-01-19T22:41:26.549Z,83.26
2023-01-19T22:43:56.103Z,83.55
2023-01-19T22:46:25.897Z,83.77
2023-01-19T22:48:53.625Z,83.05
2023-01-19T22:51:21.459Z,83.30
2023-01-19T22:53:48.557Z,83.41
2023-01-19T22:56:17.281Z,83.59
2023-01-19T22:58:44.844Z,82.79
2023-01-19T23:01:13.749Z,83.62
2023-01-19T23:03:40.862Z,83.01
2023-01-19T23:06:10.230Z,83.00
2023-01-19T23:08:37.059Z,82.52
2023-01-19T23:11:10.241Z,82.94
2023-01-19T23:13:37.289Z,83.01
2023-01-19T23:16:05.266Z,82.83
2023-01-19T23:18:32.193Z,82.71
2023-01-19T23:21:16.099Z,82.91
2023-01-19T23:23:43.783Z,82.79
2023-01-19T23:26:14.955Z,83.18
2023-01-19T23:28:42.077Z,82.66
2023-01-19T23:31:23.869Z,82.43
2023-01-19T23:33:51.123Z,82.95
2023-01-19T23:36:20.412Z,82.88
2023-01-19T23:38:52.082Z,83.03
2023-01-19T23:41:19.054Z,82.86
2023-01-19T23:43:45.903Z,82.50
2023-01-19T23:46:13.764Z,82.90
2023-01-19T23:48:40.306Z,82.67
2023-01-19T23:51:09.067Z,83.38
2023-01-19T23:53:36.431Z,82.78
2023-01-19T23:56:15.069Z,82.50
2023-01-19T23:58:41.692Z,83.29
